Time;durP1;ratioP1;P1;durP2;ratioP2;P2;SDS_P1;SDS_P2;PMS_P1;PMS_P2;Temp;Humidity;BMP_temperature;BMP_pressure;BME280_temperature;BME280_humidity;BME280_pressure;Samples;Min_cycle;Max_cycle;Signal;HPM_P1;HPM_P2
2021/07/02 00:01:53;;;;;;;2.60;2.40;;;24.00;99.90;;;;;;5053207;28;20449;-25
2021/07/02 00:04:24;;;;;;;2.63;2.40;;;24.20;99.90;;;;;;5049119;28;20452;-25
2021/07/02 00:06:55;;;;;;;3.60;2.80;;;24.40;99.90;;;;;;5062892;28;20482;-25
2021/07/02 00:09:26;;;;;;;3.30;3.10;;;24.80;99.90;;;;;;5063258;28;20452;-25
2021/07/02 00:11:58;;;;;;;3.07;2.80;;;24.90;99.90;;;;;;5067102;28;20452;-25
2021/07/02 00:14:29;;;;;;;3.30;3.10;;;24.90;99.90;;;;;;5066586;28;20515;-24
2021/07/02 00:17:00;;;;;;;3.00;2.80;;;24.90;99.90;;;;;;5066798;28;20453;-24
2021/07/02 00:19:33;;;;;;;3.47;3.27;;;25.00;99.90;;;;;;5066833;28;20440;-25
2021/07/02 00:22:04;;;;;;;3.77;3.57;;;25.00;99.80;;;;;;5066495;28;20432;-24
2021/07/02 00:24:35;;;;;;;4.00;3.80;;;25.00;99.90;;;;;;5065119;28;20481;-25
2021/07/02 00:27:08;;;;;;;3.77;3.50;;;25.00;99.90;;;;;;5066722;28;20471;-22
2021/07/02 00:29:39;;;;;;;3.73;3.53;;;24.90;99.90;;;;;;5066384;28;20892;-22
2021/07/02 00:32:11;;;;;;;3.73;3.53;;;25.10;99.90;;;;;;5066109;28;20444;-23
2021/07/02 00:34:42;;;;;;;3.70;3.47;;;25.10;99.90;;;;;;5045832;28;20499;-24
2021/07/02 00:37:13;;;;;;;3.57;3.27;;;24.90;99.90;;;;;;5062692;28;20444;-24
2021/07/02 00:39:44;;;;;;;3.23;3.03;;;24.80;99.90;;;;;;5064073;28;20487;-24
2021/07/02 00:42:17;;;;;;;3.23;3.03;;;24.80;99.90;;;;;;5065533;28;20469;-27
2021/07/02 00:44:49;;;;;;;3.73;3.53;;;24.60;99.90;;;;;;5064802;28;20554;-25
2021/07/02 00:47:21;;;;;;;3.70;3.50;;;24.40;99.90;;;;;;5065621;28;20451;-25
2021/07/02 00:49:53;;;;;;;4.13;3.83;;;24.40;99.90;;;;;;5062922;28;20877;-23
2021/07/02 00:52:25;;;;;;;3.90;3.60;;;24.40;99.90;;;;;;5064796;28;20455;-23
2021/07/02 00:54:56;;;;;;;4.03;3.73;;;24.20;99.90;;;;;;5052796;28;20577;-24
2021/07/02 00:57:30;;;;;;;4.37;4.07;;;24.30;99.90;;;;;;5065546;28;20543;-22
2021/07/02 01:00:02;;;;;;;4.53;4.23;;;24.20;99.90;;;;;;5062799;28;20775;-23
2021/07/02 01:02:33;;;;;;;4.83;4.47;;;23.90;99.90;;;;;;5065157;28;20499;-23
2021/07/02 01:05:07;;;;;;;5.00;4.70;;;23.80;99.90;;;;;;5065421;28;20606;-22
2021/07/02 01:07:38;;;;;;;4.90;4.50;;;23.50;99.90;;;;;;5065783;28;20419;-23
2021/07/02 01:10:10;;;;;;;5.20;4.80;;;23.60;99.90;;;;;;5062776;28;20547;-24
2021/07/02 01:12:43;;;;;;;5.67;5.17;;;23.40;99.90;;;;;;5064968;28;20444;-26
2021/07/02 01:15:24;;;;;;;5.97;5.47;;;23.40;99.90;;;;;;5065229;28;20484;-28
2021/07/02 01:17:56;;;;;;;5.60;5.20;;;23.20;99.90;;;;;;5064947;28;20952;-26
2021/07/02 01:20:26;;;;;;;5.37;4.97;;;23.20;99.90;;;;;;5063745;28;20475;-27
2021/07/02 01:23:00;;;;;;;6.50;6.00;;;23.20;99.90;;;;;;5064527;28;20415;-27
2021/07/02 01:25:34;;;;;;;5.57;5.27;;;23.30;99.90;;;;;;5063381;28;20470;-22
2021/07/02 01:28:05;;;;;;;5.57;5.20;;;23.50;99.90;;;;;;5055609;28;20448;-27
2021/07/02 01:30:37;;;;;;;5.23;4.90;;;23.70;99.90;;;;;;5063981;28;20791;-23
2021/07/02 01:33:08;;;;;;;4.17;3.87;;;23.50;99.90;;;;;;5065108;28;20448;-26
2021/07/02 01:35:39;;;;;;;4.30;4.00;;;23.50;99.90;;;;;;5055139;28;20530;-23
2021/07/02 01:38:12;;;;;;;4.53;4.23;;;23.40;99.90;;;;;;5065379;28;20471;-22
2021/07/02 01:40:43;;;;;;;4.40;4.10;;;23.40;99.90;;;;;;5063237;28;20476;-25
2021/07/02 01:43:14;;;;;;;4.67;4.33;;;23.30;99.90;;;;;;5048950;28;20449;-25
2021/07/02 01:45:48;;;;;;;4.43;4.13;;;23.10;99.90;;;;;;5064343;28;20472;-25
2021/07/02 01:48:21;;;;;;;4.20;3.90;;;23.00;99.90;;;;;;5064862;28;20518;-23
2021/07/02 01:50:55;;;;;;;4.40;3.90;;;23.10;99.90;;;;;;5063023;28;20485;-24
2021/07/02 01:53:31;;;;;;;3.90;3.60;;;23.10;99.90;;;;;;5065182;28;20433;-26
2021/07/02 01:56:02;;;;;;;4.40;4.10;;;23.10;99.90;;;;;;5063295;28;20486;-26
2021/07/02 01:58:33;;;;;;;4.57;4.17;;;23.10;99.90;;;;;;5064394;28;20452;-26
2021/07/02 02:01:04;;;;;;;4.33;3.93;;;23.10;99.90;;;;;;5063153;28;20478;-24
2021/07/02 02:03:35;;;;;;;5.00;4.10;;;23.10;99.90;;;;;;5064963;28;20479;-23
2021/07/02 02:06:06;;;;;;;4.07;3.80;;;23.00;99.90;;;;;;5064252;28;20448;-26
2021/07/02 02:08:41;;;;;;;4.57;4.27;;;23.00;99.90;;;;;;5064242;28;20441;-24
2021/07/02 02:11:12;;;;;;;4.60;4.20;;;23.00;99.90;;;;;;5053180;28;20452;-25
2021/07/02 02:13:43;;;;;;;4.43;3.80;;;22.90;99.90;;;;;;5064176;28;20483;-26
2021/07/02 02:16:14;;;;;;;4.80;4.00;;;22.90;99.90;;;;;;5063329;28;20488;-24
2021/07/02 02:18:57;;;;;;;4.03;3.73;;;23.00;99.90;;;;;;5064125;28;20506;-25
2021/07/02 02:21:28;;;;;;;4.33;4.03;;;22.90;99.90;;;;;;5062149;28;20436;-22
2021/07/02 02:24:02;;;;;;;5.73;4.33;;;22.80;99.90;;;;;;5063075;28;20440;-24
2021/07/02 02:26:33;;;;;;;4.67;4.27;;;22.70;99.90;;;;;;5063656;28;20463;-26
2021/07/02 02:29:04;;;;;;;4.20;3.90;;;22.70;99.90;;;;;;5064076;28;20913;-24
2021/07/02 02:31:36;;;;;;;3.90;3.60;;;22.70;99.90;;;;;;5063249;28;20510;-28
2021/07/02 02:34:07;;;;;;;4.50;4.20;;;22.50;99.90;;;;;;5061202;28;20495;-24
2021/07/02 02:36:38;;;;;;;4.47;4.10;;;22.50;99.90;;;;;;5062801;28;20542;-24
2021/07/02 02:39:11;;;;;;;4.27;3.97;;;22.40;99.90;;;;;;5063010;28;20437;-26
2021/07/02 02:41:42;;;;;;;3.93;3.63;;;22.30;99.90;;;;;;5059753;28;20498;-22
2021/07/02 02:44:13;;;;;;;5.10;4.70;;;22.30;99.90;;;;;;5060946;28;20860;-26
2021/07/02 02:46:44;;;;;;;4.03;3.73;;;22.30;99.90;;;;;;5062811;28;20448;-24
2021/07/02 02:49:15;;;;;;;4.00;3.70;;;22.20;99.90;;;;;;5063549;28;20442;-25
2021/07/02 02:51:47;;;;;;;4.47;4.17;;;22.20;99.90;;;;;;5054750;28;20455;-25
2021/07/02 02:54:20;;;;;;;4.33;3.90;;;22.10;99.90;;;;;;5063227;28;20473;-24
2021/07/02 02:57:06;;;;;;;4.50;4.10;;;22.10;99.90;;;;;;5062734;28;20513;-23
2021/07/02 02:59:38;;;;;;;4.10;3.90;;;22.20;99.90;;;;;;5062882;28;20487;-24
2021/07/02 03:02:12;;;;;;;4.40;4.10;;;22.10;99.90;;;;;;5062843;28;20893;-25
2021/07/02 03:04:43;;;;;;;4.20;3.90;;;22.00;99.90;;;;;;5062346;28;20460;-26
2021/07/02 03:07:14;;;;;;;5.00;3.83;;;22.00;99.90;;;;;;5063378;28;20488;-24
2021/07/02 03:09:46;;;;;;;4.30;4.00;;;22.00;99.90;;;;;;5061778;28;20437;-28
2021/07/02 03:12:17;;;;;;;5.90;4.07;;;21.90;99.90;;;;;;5061153;28;20467;-26
2021/07/02 03:14:49;;;;;;;4.87;4.20;;;21.80;99.90;;;;;;5060194;28;20509;-25
2021/07/02 03:17:20;;;;;;;5.20;4.73;;;21.80;99.90;;;;;;5061598;28;20487;-22
2021/07/02 03:19:51;;;;;;;4.90;4.50;;;21.70;99.90;;;;;;5061321;28;20468;-27
2021/07/02 03:22:22;;;;;;;3.80;3.60;;;21.60;99.90;;;;;;5061490;28;20829;-25
2021/07/02 03:24:55;;;;;;;4.90;4.50;;;21.50;99.90;;;;;;5060085;28;20445;-25
2021/07/02 03:27:26;;;;;;;4.40;4.10;;;21.50;99.90;;;;;;5061702;28;20460;-23
2021/07/02 03:29:57;;;;;;;4.60;4.30;;;21.30;99.90;;;;;;5061020;28;20460;-25
2021/07/02 03:32:28;;;;;;;4.33;4.00;;;21.30;99.90;;;;;;5062197;28;20510;-24
2021/07/02 03:34:59;;;;;;;4.97;4.57;;;21.20;99.90;;;;;;5061686;28;20499;-24
2021/07/02 03:37:30;;;;;;;4.47;4.07;;;21.20;99.90;;;;;;5062212;28;20461;-27
2021/07/02 03:40:02;;;;;;;4.67;4.27;;;21.20;99.90;;;;;;5060106;28;20549;-23
2021/07/02 03:42:33;;;;;;;4.00;3.80;;;21.10;99.90;;;;;;5060308;28;20732;-23
2021/07/02 03:45:06;;;;;;;4.00;3.70;;;21.10;99.90;;;;;;5061610;28;20452;-25
2021/07/02 03:47:37;;;;;;;4.07;3.77;;;21.10;99.90;;;;;;5062560;28;20454;-22
2021/07/02 03:50:10;;;;;;;4.87;4.40;;;21.00;99.90;;;;;;5061934;28;20511;-21
2021/07/02 03:52:43;;;;;;;4.30;3.90;;;20.90;99.90;;;;;;5061333;28;20501;-23
2021/07/02 03:55:16;;;;;;;5.07;4.47;;;20.90;99.90;;;;;;5053681;28;20507;-22
2021/07/02 03:57:52;;;;;;;5.27;4.53;;;20.90;99.90;;;;;;5062485;28;20487;-22
2021/07/02 04:00:23;;;;;;;4.73;4.33;;;21.00;99.90;;;;;;5051624;28;20465;-23
2021/07/02 04:02:54;;;;;;;4.47;4.07;;;20.90;99.90;;;;;;5062327;28;20448;-23
2021/07/02 04:05:25;;;;;;;5.07;4.20;;;20.90;99.90;;;;;;5062507;28;20532;-24
2021/07/02 04:07:56;;;;;;;4.23;3.93;;;20.90;99.90;;;;;;5062321;28;20442;-23
2021/07/02 04:10:28;;;;;;;4.90;4.43;;;20.90;99.90;;;;;;5050331;28;20440;-23
2021/07/02 04:12:59;;;;;;;5.23;4.80;;;20.90;99.90;;;;;;5062177;28;20491;-25
2021/07/02 04:15:30;;;;;;;7.00;4.37;;;20.80;99.90;;;;;;5060731;28;20480;-23
2021/07/02 04:18:01;;;;;;;5.40;4.90;;;20.80;99.90;;;;;;5058939;28;20466;-24
2021/07/02 04:20:33;;;;;;;5.63;4.73;;;20.80;99.90;;;;;;5061208;28;20580;-24
2021/07/02 04:23:04;;;;;;;5.53;4.37;;;20.80;99.90;;;;;;5061227;28;20445;-25
2021/07/02 04:25:41;;;;;;;5.53;4.77;;;20.80;99.90;;;;;;5050787;28;20450;-23
2021/07/02 04:28:12;;;;;;;6.63;5.17;;;20.70;99.90;;;;;;5059697;28;20446;-23
2021/07/02 04:30:43;;;;;;;5.17;4.67;;;20.80;99.90;;;;;;5056901;28;20427;-23
2021/07/02 04:33:14;;;;;;;5.20;4.73;;;20.80;99.90;;;;;;5058715;28;20419;-22
2021/07/02 04:35:47;;;;;;;5.60;5.10;;;20.70;99.90;;;;;;5061247;28;20964;-25
2021/07/02 04:38:21;;;;;;;5.47;4.97;;;20.80;99.90;;;;;;5058882;28;20430;-23
2021/07/02 04:40:53;;;;;;;5.57;5.07;;;20.70;99.90;;;;;;5059317;28;20445;-23
2021/07/02 04:43:24;;;;;;;5.37;4.87;;;20.70;99.90;;;;;;5059108;28;20472;-23
2021/07/02 04:45:55;;;;;;;5.67;5.13;;;20.70;99.90;;;;;;5061080;28;20518;-22
2021/07/02 04:48:43;;;;;;;5.30;4.80;;;20.70;99.90;;;;;;5060914;28;20476;-24
2021/07/02 04:51:14;;;;;;;6.57;5.00;;;20.70;99.90;;;;;;5060327;28;20542;-24
2021/07/02 04:53:48;;;;;;;5.80;5.30;;;20.70;99.90;;;;;;5061756;28;20509;-24
2021/07/02 04:56:21;;;;;;;5.97;5.40;;;20.60;99.90;;;;;;5063773;28;20472;-24
2021/07/02 04:58:54;;;;;;;6.00;5.40;;;20.60;99.90;;;;;;5065685;28;20440;-24
2021/07/02 05:01:26;;;;;;;6.10;5.67;;;20.60;99.90;;;;;;5065742;28;20873;-26
2021/07/02 05:03:57;;;;;;;7.20;5.73;;;20.60;99.90;;;;;;5065808;28;20423;-23
2021/07/02 05:06:28;;;;;;;6.27;5.67;;;20.60;99.90;;;;;;5068473;28;20438;-28
2021/07/02 05:08:59;;;;;;;7.57;6.40;;;20.60;99.90;;;;;;5077727;28;20456;-25
2021/07/02 05:11:31;;;;;;;6.70;6.20;;;20.60;99.90;;;;;;5069166;28;20800;-22
2021/07/02 05:14:04;;;;;;;6.63;6.00;;;20.60;99.90;;;;;;5065352;28;20468;-23
2021/07/02 05:16:40;;;;;;;6.10;5.50;;;20.60;99.90;;;;;;5064931;28;20877;-23
2021/07/02 05:19:11;;;;;;;5.73;5.33;;;20.50;99.90;;;;;;5063140;28;20427;-22
2021/07/02 05:21:42;;;;;;;6.07;5.47;;;20.50;99.90;;;;;;5064644;28;20480;-25
2021/07/02 05:24:13;;;;;;;6.30;5.73;;;20.40;99.90;;;;;;5066916;28;20456;-24
2021/07/02 05:26:45;;;;;;;6.73;5.53;;;20.50;99.90;;;;;;5064561;28;20434;-22
2021/07/02 05:29:16;;;;;;;6.63;6.03;;;20.40;99.90;;;;;;5065679;28;20455;-24
2021/07/02 05:31:50;;;;;;;6.47;5.87;;;20.50;99.90;;;;;;5064766;28;20959;-22
2021/07/02 05:34:22;;;;;;;5.67;5.30;;;20.50;99.90;;;;;;5062684;28;20423;-24
2021/07/02 05:36:53;;;;;;;5.83;5.33;;;20.40;99.90;;;;;;5063376;28;20451;-24
2021/07/02 05:39:24;;;;;;;6.53;6.03;;;20.40;99.90;;;;;;5064214;28;20430;-23
2021/07/02 05:41:57;;;;;;;7.10;6.50;;;20.50;99.90;;;;;;5063573;28;20419;-22
2021/07/02 05:44:31;;;;;;;6.37;5.87;;;20.50;99.90;;;;;;5059203;28;20426;-23
2021/07/02 05:47:02;;;;;;;6.33;5.73;;;20.40;99.90;;;;;;5064334;28;20445;-25
2021/07/02 05:49:33;;;;;;;6.67;5.97;;;20.50;99.90;;;;;;5064650;28;20450;-25
2021/07/02 05:52:04;;;;;;;6.70;6.00;;;20.50;99.90;;;;;;5064058;28;20557;-22
2021/07/02 05:54:35;;;;;;;7.80;6.17;;;20.50;99.90;;;;;;5063960;28;20481;-24
2021/07/02 05:57:08;;;;;;;6.20;5.60;;;20.50;99.90;;;;;;5063848;28;20562;-23
2021/07/02 05:59:41;;;;;;;5.70;5.30;;;20.40;99.90;;;;;;5065196;28;20453;-23
2021/07/02 06:02:12;;;;;;;6.47;5.87;;;20.40;99.90;;;;;;5064208;28;20431;-23
2021/07/02 06:04:43;;;;;;;6.43;5.90;;;20.40;99.90;;;;;;5063473;28;20433;-23
2021/07/02 06:07:14;;;;;;;6.70;6.03;;;20.40;99.90;;;;;;5063378;28;20448;-25
2021/07/02 06:09:48;;;;;;;6.30;5.70;;;20.40;99.90;;;;;;5064402;28;20415;-22
2021/07/02 06:12:20;;;;;;;6.23;5.73;;;20.40;99.90;;;;;;5060385;28;20452;-22
2021/07/02 06:14:51;;;;;;;6.43;5.93;;;20.40;99.90;;;;;;5048063;28;20448;-27
2021/07/02 06:17:32;;;;;;;5.77;5.37;;;20.30;99.90;;;;;;5063993;28;20526;-25
2021/07/02 06:20:04;;;;;;;6.03;5.60;;;20.40;99.90;;;;;;5063691;28;20453;-24
2021/07/02 06:22:35;;;;;;;6.10;5.50;;;20.40;99.90;;;;;;5063422;28;20483;-26
2021/07/02 06:25:08;;;;;;;6.97;6.27;;;20.40;99.90;;;;;;5063546;28;20472;-25
2021/07/02 06:27:41;;;;;;;8.27;5.73;;;20.40;99.90;;;;;;5063793;28;20414;-23
2021/07/02 06:30:19;;;;;;;6.80;6.03;;;20.40;99.90;;;;;;5064025;28;20488;-24
2021/07/02 06:32:50;;;;;;;7.10;6.40;;;20.40;99.90;;;;;;5063473;28;20456;-23
2021/07/02 06:35:21;;;;;;;6.77;6.13;;;20.50;99.90;;;;;;5062881;28;20573;-24
2021/07/02 06:37:52;;;;;;;7.20;6.60;;;20.40;99.90;;;;;;5063422;28;20482;-23
2021/07/02 06:40:23;;;;;;;6.63;6.00;;;20.30;99.90;;;;;;5059905;28;20453;-23
2021/07/02 06:42:56;;;;;;;5.73;5.30;;;20.30;99.90;;;;;;5064372;28;20479;-23
2021/07/02 06:45:28;;;;;;;6.60;5.83;;;20.30;99.90;;;;;;5062856;28;20456;-24
2021/07/02 06:48:00;;;;;;;6.40;5.90;;;20.30;99.90;;;;;;5063572;28;20458;-23
2021/07/02 06:50:33;;;;;;;6.20;5.50;;;20.30;99.90;;;;;;5062546;28;20506;-24
2021/07/02 06:53:06;;;;;;;6.60;6.00;;;20.30;99.90;;;;;;5063562;28;20480;-26
2021/07/02 06:55:37;;;;;;;7.00;6.50;;;20.30;99.90;;;;;;5060987;28;20448;-23
2021/07/02 06:58:10;;;;;;;6.80;6.30;;;20.20;99.90;;;;;;5059884;28;20514;-24
2021/07/02 07:00:41;;;;;;;6.13;5.63;;;20.20;99.90;;;;;;5063367;28;20582;-22
2021/07/02 07:03:12;;;;;;;6.97;6.37;;;20.20;99.90;;;;;;5063353;28;20519;-26
2021/07/02 07:05:43;;;;;;;6.40;5.80;;;20.20;99.90;;;;;;5062074;28;20448;-23
2021/07/02 07:08:14;;;;;;;8.00;6.30;;;20.30;99.90;;;;;;5063203;28;20449;-23
2021/07/02 07:10:45;;;;;;;7.00;6.30;;;20.20;99.90;;;;;;5062958;28;21048;-24
2021/07/02 07:13:18;;;;;;;6.70;6.13;;;20.20;99.90;;;;;;5063383;28;20484;-24
2021/07/02 07:15:49;;;;;;;6.33;5.80;;;20.30;99.90;;;;;;5062923;28;20448;-26
2021/07/02 07:18:20;;;;;;;6.00;5.50;;;20.30;99.90;;;;;;5062356;28;20548;-23
2021/07/02 07:20:51;;;;;;;6.40;5.90;;;20.30;99.90;;;;;;5060655;28;20482;-25
2021/07/02 07:23:22;;;;;;;5.90;5.33;;;20.30;99.90;;;;;;5062642;28;20453;-23
2021/07/02 07:25:53;;;;;;;6.37;5.77;;;20.20;99.90;;;;;;5061591;28;20479;-23
2021/07/02 07:28:25;;;;;;;6.40;5.90;;;20.30;99.90;;;;;;5063018;28;20444;-22
2021/07/02 07:30:56;;;;;;;8.10;6.00;;;20.30;99.90;;;;;;5062739;28;20450;-22
2021/07/02 07:33:29;;;;;;;6.47;5.97;;;20.30;99.90;;;;;;5062284;28;20506;-23
2021/07/02 07:36:03;;;;;;;6.43;5.90;;;20.20;99.90;;;;;;5062051;28;20455;-23
2021/07/02 07:38:34;;;;;;;6.50;5.90;;;20.20;99.90;;;;;;5058677;28;20489;-23
2021/07/02 07:41:05;;;;;;;5.57;5.10;;;20.10;99.90;;;;;;5061752;28;20472;-23
2021/07/02 07:43:38;;;;;;;7.47;6.10;;;20.10;99.90;;;;;;5055550;28;20415;-22
2021/07/02 07:46:09;;;;;;;6.30;5.77;;;20.10;99.90;;;;;;5061877;28;20480;-22
2021/07/02 07:48:40;;;;;;;6.20;5.60;;;20.10;99.90;;;;;;5046906;28;20419;-23
2021/07/02 07:51:32;;;;;;;6.53;5.43;;;20.00;99.90;;;;;;5061886;28;20450;-24
2021/07/02 07:54:04;;;;;;;5.67;5.10;;;20.00;99.90;;;;;;5062701;28;20453;-22
2021/07/02 07:56:35;;;;;;;6.70;6.20;;;20.00;99.90;;;;;;5060652;28;20454;-23
2021/07/02 07:59:08;;;;;;;6.57;5.90;;;20.00;99.90;;;;;;5061788;28;20450;-23
2021/07/02 08:01:39;;;;;;;7.30;6.70;;;20.00;99.90;;;;;;5056277;28;20430;-25
2021/07/02 08:04:13;;;;;;;6.40;5.70;;;20.00;99.90;;;;;;5062535;28;20427;-27
2021/07/02 08:06:45;;;;;;;6.27;5.63;;;20.00;99.90;;;;;;5061454;28;20427;-23
2021/07/02 08:09:17;;;;;;;6.57;5.97;;;20.00;99.90;;;;;;5062188;28;20434;-23
2021/07/02 08:11:48;;;;;;;11.03;6.60;;;19.90;99.90;;;;;;5061716;28;20480;-23
2021/07/02 08:14:21;;;;;;;7.30;6.60;;;19.90;99.90;;;;;;5062620;28;20434;-22
2021/07/02 08:16:52;;;;;;;6.40;5.80;;;19.90;99.90;;;;;;5062023;28;20597;-22
2021/07/02 08:19:23;;;;;;;7.40;6.40;;;19.80;99.90;;;;;;5068524;28;20541;-23
2021/07/02 08:21:54;;;;;;;6.30;5.80;;;19.70;99.90;;;;;;5061773;28;20772;-25
2021/07/02 08:24:25;;;;;;;6.70;6.10;;;19.70;99.90;;;;;;5062701;28;20449;-22
2021/07/02 08:26:58;;;;;;;9.20;6.20;;;19.60;99.90;;;;;;5059690;28;20479;-23
2021/07/02 08:29:35;;;;;;;9.93;6.30;;;19.70;99.90;;;;;;5059836;28;20448;-23
2021/07/02 08:32:06;;;;;;;6.23;5.63;;;19.60;99.90;;;;;;5066543;28;20524;-23
2021/07/02 08:34:37;;;;;;;11.60;7.17;;;19.60;99.90;;;;;;5066434;28;20571;-22
2021/07/02 08:37:10;;;;;;;6.60;5.93;;;19.60;99.90;;;;;;5062380;28;20459;-23
2021/07/02 08:39:47;;;;;;;6.17;5.60;;;19.40;99.90;;;;;;5059730;28;20460;-22
2021/07/02 08:42:18;;;;;;;6.83;6.13;;;19.50;99.90;;;;;;5065263;28;20444;-24
2021/07/02 08:44:54;;;;;;;6.57;5.90;;;19.50;99.90;;;;;;5063805;28;20433;-22
2021/07/02 08:47:25;;;;;;;7.07;6.37;;;19.40;99.90;;;;;;5065433;28;20604;-23
2021/07/02 08:49:57;;;;;;;7.67;6.07;;;19.30;99.90;;;;;;5066010;28;20483;-23
2021/07/02 08:52:32;;;;;;;6.63;6.00;;;19.30;99.90;;;;;;5065373;28;20535;-23
2021/07/02 08:55:03;;;;;;;8.47;6.60;;;19.40;99.90;;;;;;5065342;28;21149;-23
2021/07/02 08:57:35;;;;;;;8.57;6.50;;;19.30;99.90;;;;;;5059328;28;20447;-24
2021/07/02 09:00:16;;;;;;;6.77;6.13;;;19.40;99.90;;;;;;5065913;28;20494;-24
2021/07/02 09:02:51;;;;;;;6.27;5.67;;;19.40;99.90;;;;;;5065775;28;20444;-24
2021/07/02 09:05:32;;;;;;;7.50;6.27;;;19.30;99.90;;;;;;5065460;28;20507;-23
2021/07/02 09:08:17;;;;;;;7.30;6.50;;;19.20;99.90;;;;;;5065149;28;20599;-23
2021/07/02 09:10:49;;;;;;;6.07;5.57;;;19.20;99.90;;;;;;5065175;28;20430;-22
2021/07/02 09:13:20;;;;;;;6.00;5.50;;;19.20;99.90;;;;;;5065816;28;20444;-22
2021/07/02 09:15:52;;;;;;;6.57;5.97;;;19.20;99.90;;;;;;5064635;28;20452;-23
2021/07/02 09:18:23;;;;;;;7.40;6.63;;;19.20;99.90;;;;;;5064957;28;20476;-22
2021/07/02 09:20:56;;;;;;;8.97;6.70;;;19.20;99.90;;;;;;5065462;28;20937;-23
2021/07/02 09:23:40;;;;;;;8.13;6.20;;;19.20;99.90;;;;;;5065371;28;20467;-25
2021/07/02 09:26:21;;;;;;;6.43;5.83;;;19.20;99.90;;;;;;5064100;28;20487;-25
2021/07/02 09:29:12;;;;;;;6.53;5.83;;;19.20;99.90;;;;;;5062147;28;20510;-23
2021/07/02 09:31:45;;;;;;;5.93;5.43;;;19.20;99.90;;;;;;5064891;28;20444;-22
2021/07/02 09:34:18;;;;;;;7.00;6.30;;;19.20;99.90;;;;;;5065114;28;20484;-25
2021/07/02 09:36:54;;;;;;;6.63;6.13;;;19.20;99.90;;;;;;5064739;28;20938;-25
2021/07/02 09:39:32;;;;;;;5.73;5.23;;;19.20;99.90;;;;;;5064880;28;20612;-25
2021/07/02 09:42:03;;;;;;;6.13;5.63;;;19.10;99.90;;;;;;5048550;28;20471;-25
2021/07/02 09:44:36;;;;;;;6.23;5.73;;;19.10;99.90;;;;;;5064857;28;20761;-23
2021/07/02 09:47:32;;;;;;;7.40;6.07;;;19.10;99.90;;;;;;5064338;28;20451;-23
2021/07/02 09:50:21;;;;;;;6.13;5.47;;;19.10;99.90;;;;;;5055916;28;20933;-24
2021/07/02 09:52:54;;;;;;;6.23;5.73;;;19.00;99.90;;;;;;5065345;28;20436;-23
2021/07/02 09:55:28;;;;;;;6.93;6.40;;;19.00;99.90;;;;;;5063913;28;20507;-22
2021/07/02 09:58:15;;;;;;;6.40;5.80;;;19.00;99.90;;;;;;5064014;28;20441;-23
2021/07/02 10:00:48;;;;;;;5.90;5.50;;;19.00;99.90;;;;;;5064435;28;20953;-22
2021/07/02 10:03:25;;;;;;;6.73;6.20;;;19.00;99.90;;;;;;5064903;28;20419;-22
2021/07/02 10:05:58;;;;;;;6.03;5.53;;;19.00;99.90;;;;;;5049056;28;20552;-22
2021/07/02 10:08:30;;;;;;;6.97;6.30;;;19.00;99.90;;;;;;5064678;28;20457;-22
2021/07/02 10:11:02;;;;;;;6.30;5.80;;;19.00;99.90;;;;;;5063650;28;20544;-22
2021/07/02 10:13:35;;;;;;;6.03;5.53;;;19.00;99.90;;;;;;5064487;28;20922;-22
2021/07/02 10:16:07;;;;;;;7.37;6.67;;;19.00;99.90;;;;;;5063951;28;20504;-24
2021/07/02 10:18:48;;;;;;;6.73;6.13;;;18.90;99.90;;;;;;5064185;28;20499;-23
2021/07/02 10:21:23;;;;;;;7.73;6.97;;;18.80;99.90;;;;;;5062314;28;20459;-24
2021/07/02 10:23:56;;;;;;;7.20;6.20;;;18.80;99.90;;;;;;5064493;28;20448;-22
2021/07/02 10:26:29;;;;;;;7.33;6.63;;;18.80;99.90;;;;;;5063773;28;20438;-25
2021/07/02 10:29:00;;;;;;;7.20;6.50;;;18.80;99.90;;;;;;5064057;28;20563;-23
2021/07/02 10:31:31;;;;;;;6.97;6.47;;;18.70;99.90;;;;;;5059678;28;20456;-24
2021/07/02 10:34:04;;;;;;;7.07;6.47;;;18.70;99.90;;;;;;5048869;28;20439;-23
2021/07/02 10:36:39;;;;;;;7.40;6.80;;;18.70;99.90;;;;;;5063795;28;20991;-22
2021/07/02 10:39:31;;;;;;;8.10;7.40;;;18.70;99.90;;;;;;5072268;28;20769;-22
2021/07/02 10:42:11;;;;;;;8.30;7.00;;;18.70;99.90;;;;;;5063036;28;20452;-24
2021/07/02 10:45:11;;;;;;;7.53;6.90;;;18.60;99.90;;;;;;5064425;28;20444;-24
2021/07/02 10:47:54;;;;;;;6.20;5.60;;;18.60;99.90;;;;;;5059146;28;20953;-23
2021/07/02 10:50:55;;;;;;;8.53;7.73;;;18.60;99.90;;;;;;5063435;28;20491;-23
2021/07/02 10:53:30;;;;;;;7.13;6.50;;;18.70;99.90;;;;;;5057320;28;20457;-22
2021/07/02 10:56:21;;;;;;;7.83;6.77;;;18.60;99.90;;;;;;5062786;28;20444;-21
2021/07/02 10:58:53;;;;;;;7.77;6.80;;;18.70;99.90;;;;;;5063712;28;20472;-22
2021/07/02 11:01:32;;;;;;;6.90;6.30;;;18.70;99.90;;;;;;5060460;28;20484;-23
2021/07/02 11:04:34;;;;;;;7.13;6.40;;;18.70;99.90;;;;;;5062346;28;20483;-22
2021/07/02 11:07:43;;;;;;;6.77;6.17;;;18.70;99.90;;;;;;5063735;28;20448;-23
2021/07/02 11:10:18;;;;;;;6.97;6.30;;;18.70;99.90;;;;;;5063867;28;20459;-23
2021/07/02 11:13:07;;;;;;;7.70;6.80;;;18.70;99.90;;;;;;5051675;28;20450;-27
2021/07/02 11:15:39;;;;;;;7.67;6.80;;;18.70;99.90;;;;;;5063228;28;20942;-22
2021/07/02 11:18:17;;;;;;;7.83;7.10;;;18.70;99.90;;;;;;5062281;28;20467;-22
2021/07/02 11:20:49;;;;;;;7.83;6.77;;;18.70;99.90;;;;;;5062693;28;20469;-25
2021/07/02 11:23:23;;;;;;;136.73;69.47;;;18.60;99.90;;;;;;5063380;28;20842;-25
2021/07/02 11:26:03;;;;;;;15.83;14.00;;;18.60;99.90;;;;;;5062203;28;20436;-25
2021/07/02 11:28:51;;;;;;;9.10;8.23;;;18.60;99.90;;;;;;5062586;28;20449;-22
2021/07/02 11:31:37;;;;;;;8.30;7.50;;;18.60;99.90;;;;;;5062985;28;20591;-21
2021/07/02 11:34:14;;;;;;;7.67;6.40;;;18.60;99.90;;;;;;5063104;28;20453;-22
2021/07/02 11:37:12;;;;;;;6.93;6.30;;;18.50;99.90;;;;;;5062453;28;20448;-22
2021/07/02 11:39:53;;;;;;;8.33;7.17;;;18.60;99.90;;;;;;5074513;28;20455;-25
2021/07/02 11:42:24;;;;;;;9.30;6.77;;;18.40;99.90;;;;;;5062006;28;20475;-22
2021/07/02 11:44:57;;;;;;;8.07;7.33;;;18.50;99.90;;;;;;5062872;28;20476;-23
2021/07/02 11:47:28;;;;;;;8.43;7.57;;;18.40;99.90;;;;;;5062437;28;20437;-22
2021/07/02 11:49:59;;;;;;;7.23;6.53;;;18.40;99.90;;;;;;5063203;28;20451;-23
2021/07/02 11:52:50;;;;;;;6.53;5.93;;;18.40;99.90;;;;;;5061784;28;20545;-24
2021/07/02 11:55:28;;;;;;;7.27;6.17;;;18.40;99.90;;;;;;5062599;28;20491;-23
2021/07/02 11:58:14;;;;;;;7.60;6.43;;;18.40;99.90;;;;;;5063020;28;20448;-24
2021/07/02 12:00:45;;;;;;;6.83;5.93;;;18.30;99.90;;;;;;5057270;28;20531;-23
2021/07/02 12:03:20;;;;;;;6.80;6.03;;;18.20;99.90;;;;;;5062082;28;20459;-24
2021/07/02 12:05:58;;;;;;;7.60;6.70;;;18.20;99.90;;;;;;5067466;28;20448;-24
2021/07/02 12:08:30;;;;;;;7.90;6.60;;;18.30;99.90;;;;;;5069442;28;20452;-22
2021/07/02 12:11:06;;;;;;;7.43;6.73;;;18.30;99.90;;;;;;5068037;28;20452;-24
2021/07/02 12:13:37;;;;;;;7.00;6.30;;;18.20;99.90;;;;;;5068879;28;20459;-22
2021/07/02 12:16:10;;;;;;;7.07;6.13;;;18.20;99.90;;;;;;5069001;28;20451;-26
2021/07/02 12:18:42;;;;;;;7.53;6.83;;;18.30;99.90;;;;;;5068330;28;20452;-23
2021/07/02 12:21:16;;;;;;;6.63;6.03;;;18.20;99.90;;;;;;5068548;28;20480;-22
2021/07/02 12:23:47;;;;;;;6.80;6.30;;;18.30;99.90;;;;;;5069177;28;20445;-25
2021/07/02 12:26:22;;;;;;;8.60;6.23;;;18.30;99.90;;;;;;5069038;28;20467;-24
2021/07/02 12:29:12;;;;;;;7.00;6.17;;;18.30;99.90;;;;;;5068730;28;20496;-26
2021/07/02 12:31:47;;;;;;;6.53;5.93;;;18.20;99.90;;;;;;5068652;28;20444;-25
2021/07/02 12:34:20;;;;;;;6.47;5.87;;;18.20;99.90;;;;;;5069208;28;20483;-23
2021/07/02 12:37:04;;;;;;;8.20;6.97;;;18.20;99.90;;;;;;5068597;28;20444;-22
2021/07/02 12:39:38;;;;;;;8.00;7.20;;;18.20;99.90;;;;;;5068792;28;20897;-22
2021/07/02 12:42:18;;;;;;;7.97;7.27;;;18.10;99.90;;;;;;5068338;28;20514;-23
2021/07/02 12:44:50;;;;;;;7.07;6.40;;;18.10;99.90;;;;;;5069300;28;20500;-23
2021/07/02 12:47:22;;;;;;;7.77;5.90;;;18.00;99.90;;;;;;5068572;28;20490;-23
2021/07/02 12:49:56;;;;;;;7.47;6.10;;;18.00;99.90;;;;;;5067994;28;20472;-22
2021/07/02 12:55:31;;;;;;;6.70;6.20;;;17.90;99.90;;;;;;5068128;28;20467;-24
2021/07/02 12:58:04;;;;;;;7.90;7.07;;;17.90;99.90;;;;;;5068998;28;20448;-23
2021/07/02 13:00:36;;;;;;;7.63;6.90;;;18.00;99.90;;;;;;5068286;28;20563;-24
2021/07/02 13:03:08;;;;;;;8.07;7.23;;;18.00;99.90;;;;;;5069112;28;20531;-26
2021/07/02 13:05:41;;;;;;;7.17;6.37;;;17.90;99.90;;;;;;5068278;28;20460;-22
2021/07/02 13:08:12;;;;;;;7.50;6.90;;;17.90;99.90;;;;;;5068830;28;20448;-25
2021/07/02 13:10:44;;;;;;;6.53;5.67;;;17.90;99.90;;;;;;5067994;28;20463;-23
2021/07/02 13:13:18;;;;;;;6.90;6.30;;;18.00;99.90;;;;;;5068189;28;20480;-22
2021/07/02 13:16:05;;;;;;;6.03;5.53;;;18.00;99.90;;;;;;5061188;28;20423;-22
2021/07/02 13:18:40;;;;;;;6.47;5.87;;;18.00;99.90;;;;;;5065241;28;20527;-24
2021/07/02 13:21:15;;;;;;;6.87;6.27;;;18.00;99.90;;;;;;5064966;28;20475;-23
2021/07/02 13:23:58;;;;;;;6.53;5.97;;;18.10;99.90;;;;;;5065418;28;20555;-21